Time;durP1;ratioP1;P1;durP2;ratioP2;P2;SDS_P1;SDS_P2;PMS_P1;PMS_P2;Temp;Humidity;BMP_temperature;BMP_pressure;BME280_temperature;BME280_humidity;BME280_pressure;Samples;Min_cycle;Max_cycle;Signal;HPM_P1;HPM_P2
2023/03/24 00:00:20;;;;;;;0.80;0.52;;;14.50;99.90;;;;;;5097255;28;20426;-57
2023/03/24 00:02:48;;;;;;;0.80;0.50;;;14.50;99.90;;;;;;5096621;28;20426;-52
2023/03/24 00:05:17;;;;;;;0.85;0.50;;;14.40;1.00;;;;;;5098873;28;20429;-55
2023/03/24 00:07:44;;;;;;;1.67;0.68;;;14.40;99.90;;;;;;5096397;28;20490;-55
2023/03/24 00:10:16;;;;;;;1.37;0.50;;;14.40;1.00;;;;;;5096946;28;20848;-56
2023/03/24 00:12:44;;;;;;;0.85;0.50;;;14.40;1.00;;;;;;5097377;28;20476;-56
2023/03/24 00:15:13;;;;;;;0.85;0.50;;;14.40;1.00;;;;;;5097412;28;20414;-56
2023/03/24 00:17:40;;;;;;;0.80;0.50;;;14.30;1.00;;;;;;5097918;28;20429;-56
2023/03/24 00:20:16;;;;;;;1.10;0.57;;;14.30;1.00;;;;;;5097490;28;20418;-55
2023/03/24 00:22:47;;;;;;;0.70;0.50;;;14.30;1.00;;;;;;5098906;28;20514;-53
2023/03/24 00:25:16;;;;;;;0.80;0.50;;;14.30;1.00;;;;;;5097360;28;20433;-55
2023/03/24 00:27:47;;;;;;;0.70;0.50;;;14.30;1.00;;;;;;5097822;28;20457;-51
2023/03/24 00:30:16;;;;;;;1.10;0.50;;;14.30;1.00;;;;;;5097505;28;20479;-56
2023/03/24 00:32:45;;;;;;;1.10;0.50;;;14.30;1.00;;;;;;5098427;28;20444;-53
2023/03/24 00:35:13;;;;;;;0.70;0.50;;;14.30;1.00;;;;;;5096670;28;20410;-54
2023/03/24 00:37:41;;;;;;;1.40;0.60;;;14.20;99.90;;;;;;5097572;28;20421;-56
2023/03/24 00:40:12;;;;;;;0.80;0.50;;;14.20;1.00;;;;;;5095860;28;20708;-51
2023/03/24 00:42:44;;;;;;;0.90;0.50;;;14.20;1.00;;;;;;5096112;28;20426;-53
2023/03/24 00:45:14;;;;;;;0.80;0.60;;;14.20;99.90;;;;;;5094711;28;20494;-56
2023/03/24 00:47:43;;;;;;;0.82;0.60;;;14.20;1.00;;;;;;5096618;28;20471;-55
2023/03/24 00:50:13;;;;;;;0.80;0.50;;;14.20;99.90;;;;;;5094505;28;20431;-56
2023/03/24 00:52:43;;;;;;;0.77;0.50;;;14.20;1.00;;;;;;5097083;28;20433;-55
2023/03/24 00:55:14;;;;;;;0.80;0.50;;;14.20;99.90;;;;;;5096806;28;20414;-57
2023/03/24 00:57:49;;;;;;;0.82;0.60;;;14.30;99.90;;;;;;5112450;28;20436;-56
2023/03/24 01:00:19;;;;;;;0.90;0.50;;;14.30;1.00;;;;;;5116000;28;20497;-56
2023/03/24 01:02:46;;;;;;;0.93;0.60;;;14.30;99.90;;;;;;5116240;28;20420;-57
2023/03/24 01:05:16;;;;;;;0.90;0.60;;;14.30;1.00;;;;;;5107594;28;20435;-56
2023/03/24 01:07:43;;;;;;;0.80;0.50;;;14.20;1.00;;;;;;5096309;28;20434;-56
2023/03/24 01:10:13;;;;;;;1.00;0.60;;;14.20;1.00;;;;;;5094621;28;20441;-58
2023/03/24 01:12:41;;;;;;;1.30;0.50;;;14.20;57.90;;;;;;5094655;28;20822;-57
2023/03/24 01:15:13;;;;;;;1.40;0.52;;;14.10;1.00;;;;;;5092011;28;20722;-56
2023/03/24 01:17:40;;;;;;;0.73;0.50;;;14.20;1.00;;;;;;5091769;28;20833;-57
2023/03/24 01:20:10;;;;;;;0.82;0.50;;;14.10;8.20;;;;;;5092687;28;20845;-57
2023/03/24 01:22:39;;;;;;;0.80;0.50;;;14.10;99.90;;;;;;5093885;28;20428;-57
2023/03/24 01:25:08;;;;;;;0.90;0.60;;;14.10;99.90;;;;;;5093091;28;20508;-56
2023/03/24 01:27:35;;;;;;;1.50;0.70;;;14.10;1.00;;;;;;5094370;28;20468;-58
2023/03/24 01:30:05;;;;;;;0.90;0.60;;;14.10;1.00;;;;;;5095694;28;20483;-56
2023/03/24 01:32:32;;;;;;;1.00;0.60;;;14.10;99.90;;;;;;5095269;28;20707;-58
2023/03/24 01:34:59;;;;;;;0.80;0.60;;;14.10;14.20;;;;;;5096427;28;20410;-58
2023/03/24 01:37:26;;;;;;;1.00;0.60;;;14.10;31.60;;;;;;5095940;28;20434;-57
2023/03/24 01:39:54;;;;;;;2.22;0.52;;;14.00;28.60;;;;;;5095683;28;20426;-56
2023/03/24 01:42:23;;;;;;;0.80;0.60;;;14.00;3.80;;;;;;5095557;28;20425;-56
2023/03/24 01:44:51;;;;;;;0.80;0.60;;;14.00;99.90;;;;;;5095178;28;20422;-57
2023/03/24 01:47:20;;;;;;;0.70;0.50;;;14.10;99.90;;;;;;5095304;28;20425;-55
2023/03/24 01:49:51;;;;;;;1.50;0.50;;;14.20;1.00;;;;;;5095840;28;20421;-57
2023/03/24 01:52:21;;;;;;;0.80;0.50;;;14.20;1.00;;;;;;5095552;28;20461;-57
2023/03/24 01:54:54;;;;;;;0.70;0.50;;;14.10;99.90;;;;;;5093275;28;20720;-57
2023/03/24 01:57:24;;;;;;;0.80;0.50;;;14.20;99.90;;;;;;5092890;28;20433;-55
2023/03/24 01:59:54;;;;;;;0.70;0.50;;;14.20;99.90;;;;;;5094356;28;20413;-58
2023/03/24 02:02:23;;;;;;;1.10;0.50;;;14.20;99.90;;;;;;5095533;28;20429;-57
2023/03/24 02:04:54;;;;;;;0.80;0.57;;;14.20;99.90;;;;;;5095097;28;20872;-57
2023/03/24 02:07:31;;;;;;;0.77;0.60;;;14.20;99.90;;;;;;5095656;28;20461;-58
2023/03/24 02:09:59;;;;;;;0.90;0.57;;;14.20;99.90;;;;;;5095161;28;20417;-56
2023/03/24 02:12:26;;;;;;;0.70;0.50;;;14.20;99.90;;;;;;5095432;28;20775;-56
2023/03/24 02:14:54;;;;;;;0.80;0.50;;;14.20;99.90;;;;;;5095482;28;20417;-57
2023/03/24 02:17:45;;;;;;;0.73;0.50;;;14.20;99.90;;;;;;5094976;28;20429;-57
2023/03/24 02:20:41;;;;;;;0.70;0.50;;;14.20;99.90;;;;;;5094913;28;20516;-58
2023/03/24 02:23:44;;;;;;;1.30;0.50;;;14.30;99.90;;;;;;5090443;28;20421;-57
2023/03/24 02:26:48;;;;;;;0.63;0.50;;;14.30;99.90;;;;;;5094770;28;20434;-58
2023/03/24 02:29:56;;;;;;;0.70;0.50;;;14.30;99.90;;;;;;5094326;28;20421;-54
2023/03/24 02:32:52;;;;;;;0.70;0.50;;;14.30;99.90;;;;;;5093122;28;20434;-55
2023/03/24 02:35:47;;;;;;;1.20;0.60;;;14.30;99.90;;;;;;5089322;28;20845;-57
2023/03/24 02:39:03;;;;;;;0.82;0.50;;;14.40;99.90;;;;;;5094800;28;20455;-56
2023/03/24 02:41:34;;;;;;;0.73;0.50;;;14.40;99.90;;;;;;5020621;28;20435;-57
2023/03/24 02:44:06;;;;;;;0.93;0.60;;;14.40;99.90;;;;;;5031602;28;20447;-56
2023/03/24 02:46:38;;;;;;;0.70;0.50;;;14.50;99.90;;;;;;5069731;28;20487;-58
2023/03/24 02:49:18;;;;;;;0.80;0.40;;;14.50;99.90;;;;;;5094917;28;20879;-56
2023/03/24 02:51:52;;;;;;;0.70;0.43;;;14.50;99.90;;;;;;5095031;28;20837;-58
2023/03/24 02:54:23;;;;;;;0.90;0.50;;;14.50;99.90;;;;;;5094906;28;20428;-57
2023/03/24 02:56:56;;;;;;;0.70;0.50;;;14.50;99.90;;;;;;5094541;28;20430;-58
2023/03/24 02:59:31;;;;;;;1.00;0.50;;;14.60;99.90;;;;;;5095014;28;20432;-56
2023/03/24 03:02:02;;;;;;;0.80;0.50;;;14.60;99.90;;;;;;5094194;28;20904;-55
2023/03/24 03:04:33;;;;;;;0.70;0.40;;;14.60;99.90;;;;;;5094862;28;20433;-57
2023/03/24 03:07:05;;;;;;;0.70;0.40;;;14.70;99.90;;;;;;5094961;28;20426;-56
2023/03/24 03:09:34;;;;;;;0.60;0.40;;;14.60;99.90;;;;;;5094830;28;20464;-57
2023/03/24 03:12:08;;;;;;;0.88;0.50;;;14.70;99.90;;;;;;5094322;28;20529;-57
2023/03/24 03:14:38;;;;;;;0.70;0.50;;;14.70;99.90;;;;;;5093368;28;20879;-57
2023/03/24 03:17:09;;;;;;;0.60;0.40;;;14.70;99.90;;;;;;5094037;28;20422;-57
2023/03/24 03:19:40;;;;;;;1.30;0.40;;;14.80;99.90;;;;;;5093226;28;20467;-58
2023/03/24 03:22:14;;;;;;;0.80;0.50;;;14.80;99.90;;;;;;5094140;28;20490;-57
2023/03/24 03:24:43;;;;;;;0.80;0.50;;;14.80;99.90;;;;;;5094153;28;20434;-56
2023/03/24 03:27:17;;;;;;;0.80;0.50;;;14.80;99.90;;;;;;5094646;28;20430;-58
2023/03/24 03:29:49;;;;;;;0.70;0.40;;;14.80;99.90;;;;;;5097634;28;20414;-55
2023/03/24 03:32:23;;;;;;;0.68;0.50;;;14.80;99.90;;;;;;5098217;28;20476;-57
2023/03/24 03:34:57;;;;;;;0.73;0.40;;;14.80;99.90;;;;;;5098452;28;20421;-56
2023/03/24 03:37:30;;;;;;;0.90;0.40;;;14.80;99.90;;;;;;5098826;28;20432;-56
2023/03/24 03:40:01;;;;;;;0.70;0.50;;;14.80;99.90;;;;;;5098397;28;20417;-56
2023/03/24 03:42:29;;;;;;;0.80;0.50;;;14.80;99.90;;;;;;5098678;28;20426;-57
2023/03/24 03:44:56;;;;;;;0.60;0.40;;;14.80;99.90;;;;;;5098327;28;20868;-58
2023/03/24 03:47:23;;;;;;;0.70;0.40;;;14.80;99.90;;;;;;5098418;28;20444;-57
2023/03/24 03:49:51;;;;;;;0.93;0.50;;;14.70;99.90;;;;;;5098092;28;20417;-57
2023/03/24 03:52:19;;;;;;;0.63;0.40;;;14.70;99.90;;;;;;5098230;28;20482;-57
2023/03/24 03:54:46;;;;;;;0.90;0.40;;;14.70;99.90;;;;;;5098196;28;20414;-57
2023/03/24 03:57:14;;;;;;;0.70;0.40;;;14.70;99.90;;;;;;5098221;28;20418;-59
2023/03/24 03:59:43;;;;;;;0.90;0.60;;;14.70;99.90;;;;;;5097955;28;20420;-57
2023/03/24 04:02:25;;;;;;;0.70;0.40;;;14.70;99.90;;;;;;5098217;28;20430;-58
2023/03/24 04:05:14;;;;;;;0.68;0.50;;;14.70;99.90;;;;;;5098319;28;20434;-56
2023/03/24 04:08:03;;;;;;;1.10;0.50;;;14.70;99.90;;;;;;5097044;28;20464;-56
2023/03/24 04:10:37;;;;;;;0.80;0.50;;;14.80;99.90;;;;;;5097280;28;20449;-57
2023/03/24 04:13:15;;;;;;;0.70;0.50;;;14.80;99.90;;;;;;5097721;28;20475;-57
2023/03/24 04:15:51;;;;;;;0.80;0.50;;;14.80;99.90;;;;;;5097026;28;20425;-59
2023/03/24 04:18:30;;;;;;;0.60;0.40;;;14.70;99.90;;;;;;5095796;28;20791;-57
2023/03/24 04:21:08;;;;;;;0.90;0.50;;;14.80;99.90;;;;;;5097111;28;20422;-57
2023/03/24 04:23:44;;;;;;;0.70;0.40;;;14.80;99.90;;;;;;5097055;28;20457;-56
2023/03/24 04:26:24;;;;;;;1.10;0.70;;;14.80;99.90;;;;;;5097549;28;20864;-58
2023/03/24 04:29:03;;;;;;;0.80;0.60;;;14.90;99.90;;;;;;5096770;28;20479;-57
2023/03/24 04:31:36;;;;;;;0.80;0.40;;;14.90;99.90;;;;;;5096614;28;20444;-56
2023/03/24 04:34:11;;;;;;;0.90;0.50;;;14.90;99.90;;;;;;5095201;28;20425;-57
2023/03/24 04:36:42;;;;;;;0.80;0.45;;;14.90;99.90;;;;;;5096685;28;20880;-57
2023/03/24 04:39:13;;;;;;;0.88;0.50;;;14.90;99.90;;;;;;5094993;28;20467;-57
2023/03/24 04:41:42;;;;;;;0.80;0.50;;;15.00;99.90;;;;;;5096398;28;20429;-56
2023/03/24 04:44:11;;;;;;;0.80;0.50;;;15.00;99.90;;;;;;5096788;28;20413;-56
2023/03/24 04:46:39;;;;;;;0.90;0.50;;;15.00;99.90;;;;;;5096344;28;20470;-58
2023/03/24 04:49:06;;;;;;;0.80;0.50;;;15.00;99.90;;;;;;5096621;28;20501;-57
2023/03/24 04:51:33;;;;;;;0.80;0.50;;;15.00;99.90;;;;;;5096635;28;20429;-57
2023/03/24 04:54:00;;;;;;;0.70;0.50;;;15.00;99.90;;;;;;5096573;28;20768;-59
2023/03/24 04:56:39;;;;;;;1.20;0.57;;;15.00;99.90;;;;;;5096928;28;20515;-56
2023/03/24 04:59:07;;;;;;;0.73;0.50;;;14.90;99.90;;;;;;5096181;28;20504;-57
2023/03/24 05:01:36;;;;;;;0.70;0.50;;;15.10;99.90;;;;;;5096872;28;20795;-57
2023/03/24 05:04:04;;;;;;;0.80;0.40;;;15.10;99.90;;;;;;5096271;28;20845;-57
2023/03/24 05:06:32;;;;;;;0.60;0.40;;;15.10;99.90;;;;;;5095781;28;20453;-58
2023/03/24 05:09:00;;;;;;;0.60;0.40;;;15.10;99.90;;;;;;5095041;28;20508;-57
2023/03/24 05:11:27;;;;;;;0.70;0.50;;;15.20;99.90;;;;;;5095594;28;20483;-56
2023/03/24 05:13:54;;;;;;;0.70;0.40;;;15.20;99.90;;;;;;5095674;28;20893;-57
2023/03/24 05:16:21;;;;;;;0.70;0.40;;;15.30;99.90;;;;;;5096056;28;20433;-58
2023/03/24 05:18:48;;;;;;;0.70;0.50;;;15.30;99.90;;;;;;5096398;28;20792;-57
2023/03/24 05:21:16;;;;;;;0.60;0.40;;;15.30;99.90;;;;;;5096389;28;20560;-56
2023/03/24 05:23:43;;;;;;;0.60;0.40;;;15.40;99.90;;;;;;5096202;28;20505;-59
2023/03/24 05:26:10;;;;;;;0.70;0.40;;;15.40;99.90;;;;;;5095874;28;20917;-57
2023/03/24 05:28:37;;;;;;;1.00;0.45;;;15.50;99.90;;;;;;5095365;28;20872;-55
2023/03/24 05:31:04;;;;;;;1.20;0.40;;;15.40;99.90;;;;;;5096187;28;20508;-55
2023/03/24 05:33:31;;;;;;;0.60;0.40;;;15.40;1.00;;;;;;5095556;28;20449;-56
2023/03/24 05:35:58;;;;;;;0.73;0.40;;;15.30;26.10;;;;;;5094957;28;20858;-57
2023/03/24 05:38:26;;;;;;;1.30;0.40;;;15.20;44.50;;;;;;5094958;28;20844;-55
2023/03/24 05:40:57;;;;;;;0.80;0.50;;;15.00;1.00;;;;;;5095800;28;20513;-54
2023/03/24 05:43:23;;;;;;;0.70;0.50;;;14.90;1.00;;;;;;5096081;28;20509;-55
2023/03/24 05:45:50;;;;;;;1.17;0.45;;;14.80;1.00;;;;;;5095527;28;20528;-53
2023/03/24 05:48:17;;;;;;;0.70;0.40;;;14.80;1.00;;;;;;5095531;28;20414;-54
2023/03/24 05:50:44;;;;;;;0.70;0.43;;;14.70;1.00;;;;;;5092520;28;20483;-56
2023/03/24 05:53:11;;;;;;;0.80;0.80;;;14.60;1.00;;;;;;5093860;28;20489;-56
2023/03/24 05:55:40;;;;;;;1.60;0.50;;;14.60;1.00;;;;;;5095264;28;20445;-57
2023/03/24 05:58:07;;;;;;;1.00;0.45;;;14.60;1.00;;;;;;5094059;28;20721;-55
2023/03/24 06:00:34;;;;;;;0.90;0.50;;;14.50;1.00;;;;;;5092875;28;20521;-56
2023/03/24 06:03:01;;;;;;;0.82;0.50;;;14.50;1.00;;;;;;5092957;28;20497;-58
2023/03/24 06:05:28;;;;;;;0.90;0.50;;;14.50;1.00;;;;;;5093066;28;20488;-55
2023/03/24 06:07:57;;;;;;;0.70;0.50;;;14.50;1.00;;;;;;5090812;28;20513;-56
2023/03/24 06:10:25;;;;;;;1.15;0.50;;;14.40;1.00;;;;;;5093325;28;20512;-56
2023/03/24 06:12:53;;;;;;;1.20;0.60;;;14.30;1.00;;;;;;5093431;28;20901;-55
2023/03/24 06:15:21;;;;;;;0.70;0.50;;;14.20;1.00;;;;;;5091328;28;20533;-54
2023/03/24 06:17:49;;;;;;;0.70;0.50;;;14.20;10.10;;;;;;5093544;28;21146;-54
2023/03/24 06:20:17;;;;;;;0.75;0.50;;;14.10;1.00;;;;;;5090712;28;20487;-57
2023/03/24 06:22:46;;;;;;;1.00;0.50;;;14.10;16.50;;;;;;5090378;28;20929;-57
2023/03/24 06:25:15;;;;;;;0.95;0.60;;;14.10;24.70;;;;;;5091086;28;20484;-55
2023/03/24 06:27:45;;;;;;;0.70;0.50;;;14.10;26.40;;;;;;5091752;28;20461;-55
2023/03/24 06:30:15;;;;;;;1.20;0.60;;;14.10;18.50;;;;;;5091222;28;20500;-56
2023/03/24 06:32:45;;;;;;;0.90;0.50;;;14.10;25.80;;;;;;5089611;28;20422;-57
2023/03/24 06:35:12;;;;;;;0.80;0.60;;;14.10;29.90;;;;;;5090957;28;21154;-56
2023/03/24 06:37:39;;;;;;;0.80;0.60;;;14.10;35.80;;;;;;5090624;28;20702;-55
2023/03/24 06:40:10;;;;;;;0.70;0.50;;;14.20;29.90;;;;;;5090884;28;20794;-54
2023/03/24 06:42:37;;;;;;;0.73;0.60;;;14.20;29.80;;;;;;5091952;28;20524;-57
2023/03/24 06:45:04;;;;;;;0.80;0.60;;;14.30;41.00;;;;;;5091842;28;20497;-56
2023/03/24 06:47:32;;;;;;;1.50;0.60;;;14.30;30.00;;;;;;5093165;28;20528;-57
2023/03/24 06:49:59;;;;;;;0.80;0.60;;;14.20;46.50;;;;;;5093098;28;20492;-57
2023/03/24 06:52:27;;;;;;;0.90;0.60;;;14.20;50.20;;;;;;5094251;28;20422;-57
2023/03/24 06:54:54;;;;;;;0.80;0.50;;;14.20;52.90;;;;;;5093225;28;20417;-56
2023/03/24 06:57:21;;;;;;;1.00;0.60;;;14.20;46.30;;;;;;5092081;28;20868;-57
2023/03/24 06:59:51;;;;;;;0.80;0.60;;;14.20;60.30;;;;;;5092246;28;20414;-57
2023/03/24 07:02:18;;;;;;;0.90;0.70;;;14.20;57.80;;;;;;5094052;28;20429;-56
2023/03/24 07:04:47;;;;;;;0.88;0.60;;;14.10;71.30;;;;;;5104695;28;20516;-57
2023/03/24 07:07:14;;;;;;;1.17;0.52;;;14.10;55.50;;;;;;5115882;28;20438;-56
2023/03/24 07:09:42;;;;;;;1.10;0.60;;;14.10;58.90;;;;;;5106168;28;20422;-57
2023/03/24 07:12:10;;;;;;;0.80;0.60;;;14.10;62.90;;;;;;5105801;28;20424;-56
2023/03/24 07:14:37;;;;;;;1.10;0.75;;;14.10;83.10;;;;;;5102391;28;20418;-53
2023/03/24 07:17:03;;;;;;;1.10;0.70;;;14.10;94.00;;;;;;5098096;28;20470;-51
2023/03/24 07:19:31;;;;;;;0.70;0.60;;;14.00;95.10;;;;;;5098918;28;20577;-52
2023/03/24 07:21:59;;;;;;;1.60;0.60;;;14.00;99.60;;;;;;5098814;28;20429;-52
2023/03/24 07:24:26;;;;;;;1.00;0.60;;;14.00;99.90;;;;;;5108393;28;20424;-52
2023/03/24 07:26:53;;;;;;;1.10;0.70;;;13.90;99.90;;;;;;5113621;28;20518;-55
2023/03/24 07:29:20;;;;;;;0.88;0.60;;;13.90;99.90;;;;;;5095791;28;20449;-51
2023/03/24 07:31:47;;;;;;;0.80;0.60;;;13.90;99.90;;;;;;5095885;28;20516;-53
2023/03/24 07:34:14;;;;;;;0.90;0.60;;;13.80;99.90;;;;;;5099456;28;20421;-55
2023/03/24 07:36:41;;;;;;;1.00;0.60;;;13.70;99.90;;;;;;5101585;28;20424;-55
2023/03/24 07:39:10;;;;;;;0.90;0.60;;;13.80;99.90;;;;;;5114531;28;20503;-53
2023/03/24 07:41:37;;;;;;;0.80;0.60;;;13.90;99.90;;;;;;5095716;28;20536;-53
2023/03/24 07:44:04;;;;;;;0.90;0.65;;;13.70;99.90;;;;;;5095178;28;20798;-50
2023/03/24 07:46:31;;;;;;;1.20;0.70;;;13.60;99.90;;;;;;5095335;28;20481;-52
2023/03/24 07:48:57;;;;;;;1.50;0.70;;;13.50;99.90;;;;;;5093851;28;20497;-50
2023/03/24 07:51:24;;;;;;;0.90;0.60;;;13.40;99.90;;;;;;5099553;28;20430;-52
2023/03/24 07:53:51;;;;;;;1.10;0.70;;;13.30;99.90;;;;;;5094001;28;20505;-53
2023/03/24 07:56:20;;;;;;;1.13;0.70;;;13.30;99.90;;;;;;5106237;28;20427;-48
2023/03/24 07:58:47;;;;;;;1.40;0.70;;;13.40;99.90;;;;;;5110913;28;21067;-52
2023/03/24 08:01:14;;;;;;;0.90;0.60;;;13.40;99.90;;;;;;5094896;28;20450;-48
2023/03/24 08:03:41;;;;;;;1.10;0.70;;;13.40;99.90;;;;;;5098736;28;20455;-52
2023/03/24 08:06:09;;;;;;;0.98;0.60;;;13.40;99.90;;;;;;5103176;28;20738;-52
2023/03/24 08:08:36;;;;;;;0.90;0.60;;;13.40;99.90;;;;;;5094204;28;20796;-47
2023/03/24 08:11:03;;;;;;;1.10;0.70;;;13.40;99.90;;;;;;5110617;28;20513;-47
2023/03/24 08:13:32;;;;;;;1.10;0.60;;;13.30;99.90;;;;;;5099218;28;20925;-54
2023/03/24 08:15:59;;;;;;;1.10;0.60;;;13.30;99.90;;;;;;5109444;28;20420;-55
2023/03/24 08:18:27;;;;;;;1.58;0.70;;;13.30;99.90;;;;;;5101299;28;20509;-56
2023/03/24 08:20:58;;;;;;;1.00;0.70;;;13.40;99.90;;;;;;5094913;28;20436;-56
2023/03/24 08:23:26;;;;;;;1.00;0.70;;;13.50;99.90;;;;;;5096790;28;20487;-55
2023/03/24 08:25:53;;;;;;;1.02;0.70;;;13.50;99.90;;;;;;5095783;28;20430;-55
2023/03/24 08:28:20;;;;;;;1.20;0.70;;;13.50;99.90;;;;;;5107831;28;20455;-54
2023/03/24 08:30:48;;;;;;;1.30;0.70;;;13.50;99.90;;;;;;5095663;28;20524;-54
2023/03/24 08:33:15;;;;;;;0.80;0.60;;;13.60;99.90;;;;;;5110586;28;20460;-53
2023/03/24 08:35:43;;;;;;;1.17;0.70;;;13.60;99.90;;;;;;5093529;28;20869;-55
2023/03/24 08:38:11;;;;;;;1.88;0.70;;;13.60;99.90;;;;;;5091621;28;20418;-55
2023/03/24 08:40:41;;;;;;;1.90;0.90;;;13.60;99.90;;;;;;5091071;28;20743;-56
2023/03/24 08:43:12;;;;;;;1.20;0.90;;;13.60;99.90;;;;;;5092291;28;20496;-56
2023/03/24 08:45:39;;;;;;;1.20;0.80;;;13.50;99.90;;;;;;5094278;28;20418;-56
2023/03/24 08:48:09;;;;;;;0.93;0.60;;;13.60;99.90;;;;;;5090863;28;20597;-60
2023/03/24 08:50:38;;;;;;;1.10;0.60;;;13.70;99.90;;;;;;5092652;28;20830;-56
2023/03/24 08:53:08;;;;;;;1.13;0.70;;;13.60;99.90;;;;;;5093932;28;20505;-56
2023/03/24 08:55:40;;;;;;;0.90;0.60;;;13.70;99.90;;;;;;5092958;28;20488;-57
2023/03/24 08:58:07;;;;;;;1.00;0.70;;;13.80;99.90;;;;;;5093166;28;20492;-55
2023/03/24 09:00:34;;;;;;;1.80;0.60;;;13.90;99.90;;;;;;5101892;28;20452;-56
2023/03/24 09:03:01;;;;;;;0.90;0.70;;;13.90;99.90;;;;;;5094377;28;20426;-57
2023/03/24 09:05:29;;;;;;;0.90;0.63;;;13.90;99.90;;;;;;5097602;28;20711;-57
2023/03/24 09:07:59;;;;;;;0.90;0.60;;;14.00;99.90;;;;;;5104270;28;20506;-57
2023/03/24 09:10:26;;;;;;;1.00;0.60;;;14.10;99.90;;;;;;5093712;28;20443;-57
2023/03/24 09:12:53;;;;;;;0.90;0.50;;;14.20;99.90;;;;;;5090817;28;20453;-57
2023/03/24 09:15:21;;;;;;;0.90;0.50;;;14.30;99.90;;;;;;5100440;28;20892;-57
2023/03/24 09:17:48;;;;;;;0.82;0.52;;;14.40;99.90;;;;;;5100527;28;20451;-55
2023/03/24 09:20:17;;;;;;;1.10;0.70;;;14.40;99.90;;;;;;5098656;28;20643;-56
2023/03/24 09:22:46;;;;;;;1.50;0.50;;;14.40;99.90;;;;;;5087542;28;20426;-57
2023/03/24 09:25:15;;;;;;;0.90;0.50;;;14.70;99.90;;;;;;5086395;28;20496;-56
2023/03/24 09:27:42;;;;;;;0.70;0.50;;;14.70;99.90;;;;;;5088562;28;20469;-59
2023/03/24 09:30:11;;;;;;;0.80;0.50;;;14.70;99.90;;;;;;5088281;28;20472;-57
2023/03/24 09:32:38;;;;;;;1.00;0.60;;;14.70;99.90;;;;;;5089469;28;20911;-57
2023/03/24 09:35:07;;;;;;;0.90;0.60;;;14.90;99.90;;;;;;5088079;28;20628;-58
2023/03/24 09:37:35;;;;;;;0.80;0.50;;;14.80;99.90;;;;;;5090269;28;20430;-57
2023/03/24 09:40:05;;;;;;;0.90;0.50;;;14.70;99.90;;;;;;5097764;28;20516;-57
2023/03/24 09:42:35;;;;;;;1.30;0.50;;;14.70;99.90;;;;;;5090380;28;20711;-59
2023/03/24 09:45:07;;;;;;;0.80;0.40;;;14.80;99.90;;;;;;5090185;28;20457;-59
2023/03/24 09:47:38;;;;;;;0.75;0.45;;;15.00;99.90;;;;;;5092046;28;20495;-59
2023/03/24 09:50:12;;;;;;;0.70;0.43;;;15.10;99.90;;;;;;5092757;28;20418;-60
2023/03/24 09:52:42;;;;;;;0.80;0.50;;;15.20;99.90;;;;;;5091643;28;20569;-59
2023/03/24 09:55:15;;;;;;;1.30;0.50;;;15.30;99.90;;;;;;5099846;28;20809;-59
2023/03/24 09:57:45;;;;;;;1.10;0.50;;;15.20;99.90;;;;;;5105945;28;20514;-59
2023/03/24 10:00:18;;;;;;;0.70;0.50;;;15.20;99.90;;;;;;5102519;28;20954;-59
2023/03/24 10:02:46;;;;;;;1.00;0.50;;;15.30;99.90;;;;;;5101891;28;20456;-60
2023/03/24 10:05:15;;;;;;;0.90;0.60;;;15.40;99.90;;;;;;5108660;28;20515;-59
2023/03/24 10:07:50;;;;;;;0.60;0.43;;;15.50;99.90;;;;;;5111454;28;20518;-59
2023/03/24 10:10:27;;;;;;;1.27;0.40;;;15.60;99.90;;;;;;5103922;28;20442;-59
2023/03/24 10:13:01;;;;;;;0.88;0.55;;;16.00;99.90;;;;;;5111982;28;20408;-59
2023/03/24 10:15:33;;;;;;;0.70;0.50;;;16.30;99.90;;;;;;5112409;28;20510;-59
2023/03/24 10:18:06;;;;;;;0.90;0.50;;;16.30;99.90;;;;;;5112467;28;20761;-60
2023/03/24 10:20:41;;;;;;;1.00;0.40;;;16.30;99.90;;;;;;5095737;28;20635;-59
2023/03/24 10:23:23;;;;;;;0.90;0.50;;;16.30;99.90;;;;;;5112116;28;20430;-59
2023/03/24 10:26:00;;;;;;;0.90;0.40;;;16.40;99.90;;;;;;5104021;28;20429;-60
2023/03/24 10:28:35;;;;;;;0.90;0.40;;;16.20;99.90;;;;;;5089921;28;20465;-59
2023/03/24 10:31:09;;;;;;;1.08;0.50;;;16.40;99.90;;;;;;5091129;28;20730;-59
2023/03/24 10:33:42;;;;;;;0.60;0.30;;;16.50;99.90;;;;;;5104728;28;20930;-59
2023/03/24 10:36:13;;;;;;;1.40;0.50;;;16.40;99.90;;;;;;5088525;28;20475;-60
2023/03/24 10:38:41;;;;;;;0.98;0.40;;;16.40;99.90;;;;;;5088950;28;20863;-60
2023/03/24 10:41:15;;;;;;;0.50;0.30;;;16.50;99.90;;;;;;5102632;28;20428;-59
2023/03/24 10:43:45;;;;;;;0.50;0.30;;;16.60;99.90;;;;;;5100354;28;20482;-60
2023/03/24 10:46:16;;;;;;;0.68;0.40;;;16.60;99.90;;;;;;5093687;28;20434;-60
2023/03/24 10:48:47;;;;;;;0.70;0.40;;;16.70;99.90;;;;;;5096824;28;20748;-60
2023/03/24 10:51:20;;;;;;;0.50;0.30;;;16.90;99.90;;;;;;5094903;28;20744;-61
2023/03/24 10:53:48;;;;;;;0.50;0.30;;;17.10;99.90;;;;;;5090705;28;20430;-61
2023/03/24 10:56:38;;;;;;;0.60;0.30;;;17.20;99.90;;;;;;5095595;28;20432;-60
2023/03/24 10:59:18;;;;;;;1.00;0.40;;;17.30;99.90;;;;;;5098916;28;20447;-60
2023/03/24 11:01:45;;;;;;;0.50;0.30;;;17.30;99.90;;;;;;5089772;28;20790;-59
2023/03/24 11:04:16;;;;;;;0.70;0.40;;;17.30;99.90;;;;;;5096550;28;20476;-60
2023/03/24 11:06:57;;;;;;;0.90;0.40;;;17.10;99.90;;;;;;5094070;28;20455;-61
2023/03/24 11:09:25;;;;;;;1.00;0.30;;;17.20;99.90;;;;;;5098930;28;20815;-61
2023/03/24 11:11:53;;;;;;;1.25;0.30;;;17.20;99.90;;;;;;5097884;28;20513;-61
2023/03/24 11:14:24;;;;;;;0.70;0.30;;;17.10;99.90;;;;;;5095393;28;20837;-61
2023/03/24 11:16:52;;;;;;;0.50;0.30;;;17.10;99.90;;;;;;5101128;28;20699;-62
2023/03/24 11:19:20;;;;;;;0.40;0.30;;;17.30;99.90;;;;;;5092426;28;20524;-62
2023/03/24 11:21:49;;;;;;;1.33;0.40;;;17.30;99.90;;;;;;5105390;28;20499;-61
2023/03/24 11:24:18;;;;;;;0.65;0.30;;;17.20;99.90;;;;;;5101698;28;20458;-61
2023/03/24 11:26:50;;;;;;;0.60;0.40;;;17.10;99.90;;;;;;5109883;28;20800;-61
2023/03/24 11:29:23;;;;;;;0.80;0.30;;;17.10;99.90;;;;;;5098295;28;20492;-61
2023/03/24 11:31:55;;;;;;;0.65;0.40;;;17.10;99.90;;;;;;5094525;28;20776;-64
2023/03/24 11:34:25;;;;;;;0.70;0.40;;;17.20;99.90;;;;;;5085825;28;20425;-61
2023/03/24 11:36:55;;;;;;;0.60;0.30;;;17.60;99.90;;;;;;5088670;28;20463;-62
2023/03/24 11:39:24;;;;;;;0.50;0.30;;;17.60;99.90;;;;;;5087549;28;20433;-62
2023/03/24 11:41:59;;;;;;;0.60;0.30;;;17.50;99.90;;;;;;5089129;28;20489;-61
2023/03/24 11:44:31;;;;;;;0.50;0.25;;;17.60;99.90;;;;;;5090470;28;20522;-62
2023/03/24 11:47:02;;;;;;;0.70;0.25;;;17.60;99.90;;;;;;5090200;28;20422;-62
2023/03/24 11:49:31;;;;;;;3.30;1.10;;;17.40;99.90;;;;;;5092137;28;20536;-61
2023/03/24 11:51:59;;;;;;;0.40;0.30;;;17.40;99.90;;;;;;5100886;28;20507;-61
2023/03/24 11:54:31;;;;;;;0.40;0.20;;;17.30;99.90;;;;;;5109030;28;20955;-62
2023/03/24 11:57:03;;;;;;;0.90;0.30;;;17.30;99.90;;;;;;5102091;28;20511;-62
2023/03/24 11:59:40;;;;;;;0.60;0.30;;;17.40;99.90;;;;;;5099892;28;20429;-61
2023/03/24 12:02:18;;;;;;;2.20;0.30;;;17.40;99.90;;;;;;5093457;28;20508;-62
2023/03/24 12:05:06;;;;;;;0.35;0.20;;;17.40;99.90;;;;;;5093588;28;20447;-61
2023/03/24 12:08:01;;;;;;;0.40;0.20;;;17.30;99.90;;;;;;5094261;28;20717;-62
2023/03/24 12:10:44;;;;;;;0.40;0.20;;;17.10;99.90;;;;;;5091611;28;20410;-62
2023/03/24 12:13:13;;;;;;;0.40;0.20;;;16.90;99.90;;;;;;5096889;28;20433;-63
2023/03/24 12:15:59;;;;;;;0.50;0.20;;;16.70;99.90;;;;;;5104087;28;20516;-63
2023/03/24 12:18:42;;;;;;;0.75;0.20;;;17.00;99.90;;;;;;5094560;28;20430;-62
2023/03/24 12:21:19;;;;;;;0.40;0.20;;;17.10;99.90;;;;;;5096992;28;20457;-62
2023/03/24 12:23:57;;;;;;;0.40;0.20;;;17.10;99.90;;;;;;5097560;28;20437;-63
2023/03/24 12:26:27;;;;;;;0.80;0.20;;;17.20;99.90;;;;;;5096493;28;20424;-63
2023/03/24 12:29:35;;;;;;;0.40;0.20;;;17.20;99.90;;;;;;5097041;28;20821;-63
2023/03/24 12:32:18;;;;;;;0.50;0.30;;;17.30;99.90;;;;;;5095590;28;20422;-61
2023/03/24 12:35:20;;;;;;;0.40;0.20;;;17.10;99.90;;;;;;5094793;28;20460;-62
2023/03/24 12:37:56;;;;;;;0.32;0.20;;;17.00;99.90;;;;;;5092282;28;20796;-60
2023/03/24 12:40:54;;;;;;;0.90;0.20;;;17.00;99.90;;;;;;5093078;28;20461;-62
2023/03/24 12:43:31;;;;;;;0.38;0.20;;;17.20;99.90;;;;;;5095459;28;20884;-60
2023/03/24 12:46:04;;;;;;;0.30;0.10;;;17.30;99.90;;;;;;5094186;28;20453;-61
2023/03/24 12:49:10;;;;;;;0.30;0.20;;;17.20;99.90;;;;;;5092291;28;20430;-59
2023/03/24 12:51:45;;;;;;;0.60;0.20;;;17.00;99.90;;;;;;5092505;28;20909;-60
2023/03/24 12:54:25;;;;;;;0.50;0.20;;;16.90;99.90;;;;;;5096553;28;20429;-59
2023/03/24 12:56:56;;;;;;;0.50;0.20;;;16.70;99.90;;;;;;5107171;28;20832;-59
2023/03/24 12:59:30;;;;;;;1.20;0.30;;;16.70;99.90;;;;;;5097753;28;20832;-59
2023/03/24 13:02:04;;;;;;;0.50;0.20;;;16.70;99.90;;;;;;5109568;28;20473;-59
2023/03/24 13:04:36;;;;;;;0.80;0.20;;;16.70;99.90;;;;;;5104145;28;20437;-59
2023/03/24 13:07:07;;;;;;;0.40;0.20;;;16.60;99.90;;;;;;5094972;28;20428;-59
2023/03/24 13:09:44;;;;;;;0.40;0.20;;;16.80;99.90;;;;;;5106476;28;20493;-59